sensor_id;sensor_type;location;lat;lon;timestamp;P1;durP1;ratioP1;P2;durP2;ratioP2
42866;SDS011;39461;40.948;73.006;2022-10-12T00:01:29;17.27;;;5.50;;
42866;SDS011;39461;40.948;73.006;2022-10-12T00:04:02;19.10;;;6.18;;
42866;SDS011;39461;40.948;73.006;2022-10-12T00:06:35;17.20;;;6.22;;
42866;SDS011;39461;40.948;73.006;2022-10-12T00:09:10;22.42;;;6.63;;
42866;SDS011;39461;40.948;73.006;2022-10-12T00:11:45;17.85;;;6.53;;
42866;SDS011;39461;40.948;73.006;2022-10-12T00:14:13;13.82;;;5.75;;
42866;SDS011;39461;40.948;73.006;2022-10-12T00:16:52;15.10;;;5.80;;
42866;SDS011;39461;40.948;73.006;2022-10-12T00:19:25;17.63;;;6.10;;
42866;SDS011;39461;40.948;73.006;2022-10-12T00:22:00;12.15;;;5.53;;
42866;SDS011;39461;40.948;73.006;2022-10-12T00:24:33;13.27;;;5.78;;
42866;SDS011;39461;40.948;73.006;2022-10-12T00:27:03;17.25;;;5.80;;
42866;SDS011;39461;40.948;73.006;2022-10-12T00:29:38;18.63;;;6.30;;
42866;SDS011;39461;40.948;73.006;2022-10-12T00:32:11;14.00;;;6.10;;
42866;SDS011;39461;40.948;73.006;2022-10-12T00:34:49;17.08;;;5.88;;
42866;SDS011;39461;40.948;73.006;2022-10-12T00:37:23;19.42;;;6.15;;
42866;SDS011;39461;40.948;73.006;2022-10-12T00:39:56;17.88;;;5.40;;
42866;SDS011;39461;40.948;73.006;2022-10-12T00:42:33;20.20;;;6.15;;
42866;SDS011;39461;40.948;73.006;2022-10-12T00:45:08;19.98;;;6.03;;
42866;SDS011;39461;40.948;73.006;2022-10-12T00:48:02;18.73;;;5.93;;
42866;SDS011;39461;40.948;73.006;2022-10-12T00:50:37;17.50;;;5.97;;
42866;SDS011;39461;40.948;73.006;2022-10-12T00:53:16;15.02;;;5.55;;
42866;SDS011;39461;40.948;73.006;2022-10-12T00:56:00;24.40;;;6.00;;
42866;SDS011;39461;40.948;73.006;2022-10-12T00:58:38;12.52;;;4.95;;
42866;SDS011;39461;40.948;73.006;2022-10-12T01:01:11;17.95;;;5.80;;
42866;SDS011;39461;40.948;73.006;2022-10-12T01:03:46;16.55;;;5.18;;
42866;SDS011;39461;40.948;73.006;2022-10-12T01:06:20;21.80;;;5.78;;
42866;SDS011;39461;40.948;73.006;2022-10-12T01:08:53;17.10;;;5.57;;
42866;SDS011;39461;40.948;73.006;2022-10-12T01:11:26;23.75;;;5.75;;
42866;SDS011;39461;40.948;73.006;2022-10-12T01:14:00;14.20;;;5.57;;
42866;SDS011;39461;40.948;73.006;2022-10-12T01:22:15;13.07;;;5.60;;
42866;SDS011;39461;40.948;73.006;2022-10-12T01:25:11;25.90;;;5.47;;
42866;SDS011;39461;40.948;73.006;2022-10-12T01:27:44;26.05;;;6.43;;
42866;SDS011;39461;40.948;73.006;2022-10-12T01:33:01;18.67;;;5.47;;
42866;SDS011;39461;40.948;73.006;2022-10-12T01:38:28;17.10;;;6.57;;
42866;SDS011;39461;40.948;73.006;2022-10-12T01:43:48;18.67;;;6.50;;
42866;SDS011;39461;40.948;73.006;2022-10-12T01:48:57;26.17;;;7.13;;
42866;SDS011;39461;40.948;73.006;2022-10-12T02:08:41;17.58;;;6.63;;
42866;SDS011;39461;40.948;73.006;2022-10-12T02:11:17;34.00;;;7.40;;
42866;SDS011;39461;40.948;73.006;2022-10-12T02:13:46;25.88;;;7.50;;
42866;SDS011;39461;40.948;73.006;2022-10-12T02:16:28;32.78;;;8.32;;
42866;SDS011;39461;40.948;73.006;2022-10-12T02:19:04;38.05;;;8.60;;
42866;SDS011;39461;40.948;73.006;2022-10-12T02:21:41;31.55;;;8.05;;
42866;SDS011;39461;40.948;73.006;2022-10-12T02:24:16;34.00;;;8.88;;
42866;SDS011;39461;40.948;73.006;2022-10-12T02:26:44;40.60;;;10.80;;
42866;SDS011;39461;40.948;73.006;2022-10-12T02:29:25;34.75;;;10.80;;
42866;SDS011;39461;40.948;73.006;2022-10-12T02:35:10;38.35;;;11.93;;
42866;SDS011;39461;40.948;73.006;2022-10-12T02:37:52;44.92;;;12.48;;
42866;SDS011;39461;40.948;73.006;2022-10-12T02:43:36;40.28;;;12.80;;
42866;SDS011;39461;40.948;73.006;2022-10-12T02:46:12;44.88;;;14.68;;
42866;SDS011;39461;40.948;73.006;2022-10-12T02:48:46;37.13;;;14.43;;
42866;SDS011;39461;40.948;73.006;2022-10-12T02:51:19;58.80;;;14.55;;
42866;SDS011;39461;40.948;73.006;2022-10-12T02:53:55;51.97;;;14.88;;
42866;SDS011;39461;40.948;73.006;2022-10-12T02:56:29;51.80;;;14.75;;
42866;SDS011;39461;40.948;73.006;2022-10-12T02:59:02;57.58;;;15.40;;
42866;SDS011;39461;40.948;73.006;2022-10-12T03:01:40;49.45;;;15.98;;
42866;SDS011;39461;40.948;73.006;2022-10-12T03:04:15;50.63;;;16.73;;
42866;SDS011;39461;40.948;73.006;2022-10-12T03:09:49;60.97;;;17.60;;
42866;SDS011;39461;40.948;73.006;2022-10-12T03:12:24;49.63;;;17.15;;
42866;SDS011;39461;40.948;73.006;2022-10-12T03:14:58;41.30;;;13.85;;
42866;SDS011;39461;40.948;73.006;2022-10-12T03:17:31;48.45;;;13.63;;
42866;SDS011;39461;40.948;73.006;2022-10-12T03:20:06;59.03;;;15.07;;
42866;SDS011;39461;40.948;73.006;2022-10-12T03:22:42;50.05;;;18.77;;
42866;SDS011;39461;40.948;73.006;2022-10-12T03:25:22;43.22;;;15.65;;
42866;SDS011;39461;40.948;73.006;2022-10-12T03:27:57;44.58;;;15.90;;
42866;SDS011;39461;40.948;73.006;2022-10-12T03:30:30;29.98;;;15.80;;
42866;SDS011;39461;40.948;73.006;2022-10-12T03:33:03;47.92;;;16.02;;
42866;SDS011;39461;40.948;73.006;2022-10-12T03:35:37;56.92;;;19.65;;
42866;SDS011;39461;40.948;73.006;2022-10-12T03:38:10;42.25;;;15.25;;
42866;SDS011;39461;40.948;73.006;2022-10-12T03:40:44;45.05;;;14.80;;
42866;SDS011;39461;40.948;73.006;2022-10-12T03:43:18;36.30;;;15.48;;
42866;SDS011;39461;40.948;73.006;2022-10-12T03:45:51;48.60;;;15.98;;
42866;SDS011;39461;40.948;73.006;2022-10-12T03:48:20;37.70;;;15.82;;
42866;SDS011;39461;40.948;73.006;2022-10-12T03:50:54;58.78;;;15.88;;
42866;SDS011;39461;40.948;73.006;2022-10-12T03:53:27;39.15;;;15.35;;
42866;SDS011;39461;40.948;73.006;2022-10-12T03:56:02;37.63;;;15.63;;
42866;SDS011;39461;40.948;73.006;2022-10-12T03:58:35;34.33;;;15.18;;
42866;SDS011;39461;40.948;73.006;2022-10-12T04:01:12;45.85;;;15.77;;
42866;SDS011;39461;40.948;73.006;2022-10-12T04:03:46;41.05;;;15.73;;
42866;SDS011;39461;40.948;73.006;2022-10-12T04:06:23;38.63;;;15.20;;
42866;SDS011;39461;40.948;73.006;2022-10-12T04:08:58;44.75;;;15.25;;
42866;SDS011;39461;40.948;73.006;2022-10-12T04:11:31;40.13;;;15.38;;
42866;SDS011;39461;40.948;73.006;2022-10-12T04:13:59;35.40;;;14.95;;
42866;SDS011;39461;40.948;73.006;2022-10-12T04:16:34;36.53;;;15.48;;
42866;SDS011;39461;40.948;73.006;2022-10-12T04:19:09;51.63;;;16.10;;
42866;SDS011;39461;40.948;73.006;2022-10-12T04:21:46;43.35;;;18.48;;
42866;SDS011;39461;40.948;73.006;2022-10-12T04:24:19;42.10;;;17.80;;
42866;SDS011;39461;40.948;73.006;2022-10-12T04:26:46;40.70;;;13.02;;
42866;SDS011;39461;40.948;73.006;2022-10-12T04:29:21;41.35;;;12.55;;
42866;SDS011;39461;40.948;73.006;2022-10-12T04:32:00;29.52;;;11.90;;
42866;SDS011;39461;40.948;73.006;2022-10-12T04:34:34;31.02;;;11.75;;
42866;SDS011;39461;40.948;73.006;2022-10-12T04:37:09;29.30;;;11.60;;
42866;SDS011;39461;40.948;73.006;2022-10-12T04:39:43;26.42;;;11.93;;
42866;SDS011;39461;40.948;73.006;2022-10-12T04:42:16;36.20;;;13.43;;
42866;SDS011;39461;40.948;73.006;2022-10-12T04:44:49;33.05;;;12.70;;
42866;SDS011;39461;40.948;73.006;2022-10-12T04:50:22;39.35;;;16.83;;
42866;SDS011;39461;40.948;73.006;2022-10-12T04:52:55;48.78;;;26.20;;
42866;SDS011;39461;40.948;73.006;2022-10-12T04:55:29;27.10;;;12.75;;
42866;SDS011;39461;40.948;73.006;2022-10-12T04:58:04;58.00;;;15.15;;
42866;SDS011;39461;40.948;73.006;2022-10-12T05:00:39;30.48;;;12.23;;
42866;SDS011;39461;40.948;73.006;2022-10-12T05:03:19;36.60;;;14.23;;
42866;SDS011;39461;40.948;73.006;2022-10-12T05:05:52;42.80;;;16.77;;
42866;SDS011;39461;40.948;73.006;2022-10-12T05:08:25;34.33;;;13.73;;
42866;SDS011;39461;40.948;73.006;2022-10-12T05:11:04;37.67;;;15.73;;
42866;SDS011;39461;40.948;73.006;2022-10-12T05:13:37;35.65;;;14.40;;
42866;SDS011;39461;40.948;73.006;2022-10-12T05:16:12;32.88;;;14.07;;
42866;SDS011;39461;40.948;73.006;2022-10-12T05:18:47;41.78;;;15.65;;
42866;SDS011;39461;40.948;73.006;2022-10-12T05:21:20;37.75;;;16.25;;
42866;SDS011;39461;40.948;73.006;2022-10-12T05:23:54;45.28;;;14.50;;
42866;SDS011;39461;40.948;73.006;2022-10-12T05:26:29;29.80;;;14.07;;
42866;SDS011;39461;40.948;73.006;2022-10-12T05:29:04;26.85;;;13.43;;
42866;SDS011;39461;40.948;73.006;2022-10-12T05:31:39;32.22;;;14.50;;
42866;SDS011;39461;40.948;73.006;2022-10-12T05:34:12;33.92;;;14.43;;
42866;SDS011;39461;40.948;73.006;2022-10-12T05:36:46;35.35;;;12.10;;
42866;SDS011;39461;40.948;73.006;2022-10-12T05:39:19;37.10;;;14.07;;
42866;SDS011;39461;40.948;73.006;2022-10-12T05:41:56;28.38;;;12.50;;
42866;SDS011;39461;40.948;73.006;2022-10-12T05:44:29;31.63;;;12.00;;
42866;SDS011;39461;40.948;73.006;2022-10-12T05:47:03;25.23;;;11.75;;
42866;SDS011;39461;40.948;73.006;2022-10-12T05:49:38;33.13;;;13.07;;
42866;SDS011;39461;40.948;73.006;2022-10-12T05:52:11;34.20;;;13.85;;
42866;SDS011;39461;40.948;73.006;2022-10-12T05:54:46;28.23;;;12.70;;
42866;SDS011;39461;40.948;73.006;2022-10-12T05:57:22;28.00;;;13.55;;
42866;SDS011;39461;40.948;73.006;2022-10-12T05:59:57;31.60;;;12.43;;
42866;SDS011;39461;40.948;73.006;2022-10-12T06:02:30;20.17;;;11.38;;
42866;SDS011;39461;40.948;73.006;2022-10-12T06:05:04;25.88;;;12.55;;
42866;SDS011;39461;40.948;73.006;2022-10-12T06:07:39;23.98;;;12.20;;
42866;SDS011;39461;40.948;73.006;2022-10-12T06:10:12;29.17;;;12.27;;
42866;SDS011;39461;40.948;73.006;2022-10-12T06:12:41;28.17;;;12.95;;
42866;SDS011;39461;40.948;73.006;2022-10-12T06:18:13;31.67;;;12.30;;
42866;SDS011;39461;40.948;73.006;2022-10-12T06:20:48;25.77;;;12.43;;
42866;SDS011;39461;40.948;73.006;2022-10-12T06:23:23;34.40;;;13.68;;
42866;SDS011;39461;40.948;73.006;2022-10-12T06:25:52;29.92;;;12.15;;
42866;SDS011;39461;40.948;73.006;2022-10-12T06:28:27;26.90;;;13.73;;
42866;SDS011;39461;40.948;73.006;2022-10-12T06:31:04;32.65;;;14.52;;
42866;SDS011;39461;40.948;73.006;2022-10-12T06:33:37;28.60;;;14.30;;
42866;SDS011;39461;40.948;73.006;2022-10-12T06:36:13;41.00;;;14.85;;
42866;SDS011;39461;40.948;73.006;2022-10-12T06:38:48;46.97;;;14.98;;
42866;SDS011;39461;40.948;73.006;2022-10-12T06:41:23;35.63;;;14.43;;
42866;SDS011;39461;40.948;73.006;2022-10-12T06:43:58;36.80;;;13.55;;
42866;SDS011;39461;40.948;73.006;2022-10-12T06:46:42;34.20;;;14.15;;
42866;SDS011;39461;40.948;73.006;2022-10-12T06:49:16;28.77;;;13.13;;
42866;SDS011;39461;40.948;73.006;2022-10-12T06:51:49;37.13;;;14.93;;
42866;SDS011;39461;40.948;73.006;2022-10-12T06:54:24;28.63;;;14.05;;
42866;SDS011;39461;40.948;73.006;2022-10-12T06:56:57;40.58;;;14.85;;
42866;SDS011;39461;40.948;73.006;2022-10-12T06:59:31;35.30;;;12.43;;
42866;SDS011;39461;40.948;73.006;2022-10-12T07:02:04;30.88;;;13.25;;
42866;SDS011;39461;40.948;73.006;2022-10-12T07:04:38;32.20;;;12.90;;
42866;SDS011;39461;40.948;73.006;2022-10-12T07:07:11;31.08;;;12.38;;
42866;SDS011;39461;40.948;73.006;2022-10-12T07:09:44;33.10;;;13.35;;
42866;SDS011;39461;40.948;73.006;2022-10-12T07:12:17;39.67;;;13.75;;
42866;SDS011;39461;40.948;73.006;2022-10-12T07:14:53;29.63;;;12.48;;
42866;SDS011;39461;40.948;73.006;2022-10-12T07:17:28;34.03;;;12.85;;
42866;SDS011;39461;40.948;73.006;2022-10-12T07:20:03;24.23;;;12.15;;
42866;SDS011;39461;40.948;73.006;2022-10-12T07:22:43;33.45;;;11.95;;
42866;SDS011;39461;40.948;73.006;2022-10-12T07:25:18;29.42;;;12.82;;
42866;SDS011;39461;40.948;73.006;2022-10-12T07:27:48;33.60;;;12.88;;
42866;SDS011;39461;40.948;73.006;2022-10-12T07:30:22;35.13;;;13.85;;
42866;SDS011;39461;40.948;73.006;2022-10-12T07:32:55;33.70;;;14.40;;
42866;SDS011;39461;40.948;73.006;2022-10-12T07:35:28;40.65;;;14.48;;
42866;SDS011;39461;40.948;73.006;2022-10-12T07:38:03;37.92;;;14.05;;
42866;SDS011;39461;40.948;73.006;2022-10-12T07:40:38;36.58;;;14.70;;
42866;SDS011;39461;40.948;73.006;2022-10-12T07:43:17;31.05;;;12.32;;
42866;SDS011;39461;40.948;73.006;2022-10-12T07:48:50;39.00;;;18.48;;
42866;SDS011;39461;40.948;73.006;2022-10-12T07:51:25;36.67;;;16.38;;
42866;SDS011;39461;40.948;73.006;2022-10-12T07:53:58;33.58;;;14.85;;
42866;SDS011;39461;40.948;73.006;2022-10-12T07:56:31;37.78;;;15.27;;
42866;SDS011;39461;40.948;73.006;2022-10-12T07:59:05;45.95;;;16.42;;
42866;SDS011;39461;40.948;73.006;2022-10-12T08:01:38;38.25;;;15.25;;
42866;SDS011;39461;40.948;73.006;2022-10-12T08:04:11;37.30;;;14.85;;
42866;SDS011;39461;40.948;73.006;2022-10-12T08:06:48;29.30;;;14.60;;
42866;SDS011;39461;40.948;73.006;2022-10-12T08:09:24;37.85;;;15.45;;
42866;SDS011;39461;40.948;73.006;2022-10-12T08:11:59;48.97;;;16.13;;
42866;SDS011;39461;40.948;73.006;2022-10-12T08:14:26;33.83;;;15.00;;
42866;SDS011;39461;40.948;73.006;2022-10-12T08:17:03;39.60;;;14.55;;
42866;SDS011;39461;40.948;73.006;2022-10-12T08:19:37;27.85;;;14.82;;
42866;SDS011;39461;40.948;73.006;2022-10-12T08:22:12;30.30;;;14.20;;
42866;SDS011;39461;40.948;73.006;2022-10-12T08:24:45;27.85;;;14.18;;
42866;SDS011;39461;40.948;73.006;2022-10-12T08:27:18;32.42;;;13.55;;
42866;SDS011;39461;40.948;73.006;2022-10-12T08:29:52;29.27;;;13.75;;
42866;SDS011;39461;40.948;73.006;2022-10-12T08:32:32;29.70;;;13.63;;
42866;SDS011;39461;40.948;73.006;2022-10-12T08:35:09;32.60;;;13.60;;
42866;SDS011;39461;40.948;73.006;2022-10-12T08:37:44;26.38;;;12.35;;
42866;SDS011;39461;40.948;73.006;2022-10-12T08:40:24;34.20;;;14.50;;
42866;SDS011;39461;40.948;73.006;2022-10-12T08:46:00;34.80;;;14.32;;
42866;SDS011;39461;40.948;73.006;2022-10-12T08:51:11;40.70;;;14.60;;
42866;SDS011;39461;40.948;73.006;2022-10-12T08:53:50;31.33;;;14.88;;
42866;SDS011;39461;40.948;73.006;2022-10-12T08:56:24;38.83;;;15.05;;
42866;SDS011;39461;40.948;73.006;2022-10-12T08:59:00;37.53;;;15.40;;
42866;SDS011;39461;40.948;73.006;2022-10-12T09:01:35;34.38;;;14.23;;
42866;SDS011;39461;40.948;73.006;2022-10-12T09:04:32;28.08;;;13.98;;
42866;SDS011;39461;40.948;73.006;2022-10-12T09:07:14;25.85;;;12.73;;
42866;SDS011;39461;40.948;73.006;2022-10-12T09:15:31;26.67;;;12.65;;
42866;SDS011;39461;40.948;73.006;2022-10-12T09:18:10;39.22;;;14.18;;
42866;SDS011;39461;40.948;73.006;2022-10-12T09:20:48;34.63;;;13.40;;
42866;SDS011;39461;40.948;73.006;2022-10-12T09:23:26;30.02;;;12.80;;
42866;SDS011;39461;40.948;73.006;2022-10-12T09:26:03;25.02;;;11.38;;
42866;SDS011;39461;40.948;73.006;2022-10-12T09:28:52;30.92;;;12.48;;
42866;SDS011;39461;40.948;73.006;2022-10-12T09:31:37;34.85;;;15.00;;
42866;SDS011;39461;40.948;73.006;2022-10-12T09:34:14;27.50;;;12.30;;
42866;SDS011;39461;40.948;73.006;2022-10-12T09:39:50;33.78;;;14.13;;
42866;SDS011;39461;40.948;73.006;2022-10-12T09:42:27;36.10;;;16.67;;
42866;SDS011;39461;40.948;73.006;2022-10-12T09:45:11;27.83;;;14.13;;
42866;SDS011;39461;40.948;73.006;2022-10-12T09:51:02;36.88;;;15.20;;
42866;SDS011;39461;40.948;73.006;2022-10-12T09:53:36;42.22;;;14.93;;
42866;SDS011;39461;40.948;73.006;2022-10-12T09:58:59;31.98;;;13.70;;
42866;SDS011;39461;40.948;73.006;2022-10-12T10:01:35;34.38;;;14.77;;
42866;SDS011;39461;40.948;73.006;2022-10-12T10:04:23;33.33;;;15.02;;
42866;SDS011;39461;40.948;73.006;2022-10-12T10:07:10;40.85;;;22.35;;
42866;SDS011;39461;40.948;73.006;2022-10-12T10:09:45;35.47;;;18.27;;
42866;SDS011;39461;40.948;73.006;2022-10-12T10:12:21;29.35;;;14.65;;
42866;SDS011;39461;40.948;73.006;2022-10-12T10:14:51;31.90;;;15.73;;
42866;SDS011;39461;40.948;73.006;2022-10-12T10:17:31;34.83;;;14.85;;
42866;SDS011;39461;40.948;73.006;2022-10-12T10:20:04;29.50;;;15.00;;
42866;SDS011;39461;40.948;73.006;2022-10-12T10:22:49;37.47;;;17.05;;
42866;SDS011;39461;40.948;73.006;2022-10-12T10:25:19;41.15;;;17.38;;
42866;SDS011;39461;40.948;73.006;2022-10-12T10:31:16;35.80;;;16.25;;
42866;SDS011;39461;40.948;73.006;2022-10-12T10:36:58;44.80;;;18.25;;
42866;SDS011;39461;40.948;73.006;2022-10-12T10:39:44;36.78;;;18.25;;
42866;SDS011;39461;40.948;73.006;2022-10-12T10:42:19;37.17;;;17.63;;
42866;SDS011;39461;40.948;73.006;2022-10-12T10:45:02;52.15;;;19.92;;
42866;SDS011;39461;40.948;73.006;2022-10-12T10:47:43;37.78;;;18.85;;
42866;SDS011;39461;40.948;73.006;2022-10-12T10:51:00;51.90;;;21.17;;
42866;SDS011;39461;40.948;73.006;2022-10-12T10:53:24;54.78;;;20.75;;
42866;SDS011;39461;40.948;73.006;2022-10-12T11:01:37;62.10;;;26.38;;
42866;SDS011;39461;40.948;73.006;2022-10-12T11:04:20;45.97;;;25.60;;
42866;SDS011;39461;40.948;73.006;2022-10-12T11:06:56;38.58;;;24.02;;
42866;SDS011;39461;40.948;73.006;2022-10-12T11:09:41;47.75;;;23.90;;
42866;SDS011;39461;40.948;73.006;2022-10-12T11:12:28;54.65;;;25.33;;
42866;SDS011;39461;40.948;73.006;2022-10-12T11:15:14;50.95;;;24.05;;
42866;SDS011;39461;40.948;73.006;2022-10-12T11:18:06;60.38;;;26.48;;
42866;SDS011;39461;40.948;73.006;2022-10-12T11:20:45;61.53;;;29.15;;
42866;SDS011;39461;40.948;73.006;2022-10-12T11:29:00;51.53;;;24.75;;
42866;SDS011;39461;40.948;73.006;2022-10-12T11:31:38;53.80;;;23.80;;
42866;SDS011;39461;40.948;73.006;2022-10-12T11:34:17;49.60;;;23.70;;
42866;SDS011;39461;40.948;73.006;2022-10-12T11:36:53;54.67;;;24.80;;
42866;SDS011;39461;40.948;73.006;2022-10-12T11:42:01;44.97;;;24.98;;
42866;SDS011;39461;40.948;73.006;2022-10-12T11:44:45;48.05;;;23.33;;
42866;SDS011;39461;40.948;73.006;2022-10-12T11:50:06;56.00;;;24.17;;
42866;SDS011;39461;40.948;73.006;2022-10-12T11:52:46;65.68;;;24.70;;
42866;SDS011;39461;40.948;73.006;2022-10-12T11:57:56;56.25;;;25.90;;
42866;SDS011;39461;40.948;73.006;2022-10-12T12:05:46;56.95;;;25.90;;
42866;SDS011;39461;40.948;73.006;2022-10-12T12:08:22;49.90;;;24.95;;
42866;SDS011;39461;40.948;73.006;2022-10-12T12:11:18;57.47;;;27.20;;
42866;SDS011;39461;40.948;73.006;2022-10-12T12:13:46;48.03;;;24.60;;
42866;SDS011;39461;40.948;73.006;2022-10-12T12:16:22;66.95;;;27.05;;
42866;SDS011;39461;40.948;73.006;2022-10-12T12:19:12;65.43;;;30.30;;
42866;SDS011;39461;40.948;73.006;2022-10-12T12:25:04;65.88;;;29.02;;
42866;SDS011;39461;40.948;73.006;2022-10-12T12:32:55;70.13;;;31.52;;
42866;SDS011;39461;40.948;73.006;2022-10-12T12:35:37;64.72;;;31.88;;
42866;SDS011;39461;40.948;73.006;2022-10-12T12:38:15;63.83;;;30.95;;
42866;SDS011;39461;40.948;73.006;2022-10-12T12:40:56;79.63;;;34.08;;
42866;SDS011;39461;40.948;73.006;2022-10-12T12:46:07;108.88;;;39.20;;
42866;SDS011;39461;40.948;73.006;2022-10-12T12:51:16;136.77;;;55.97;;
42866;SDS011;39461;40.948;73.006;2022-10-12T12:54:26;130.60;;;56.47;;
42866;SDS011;39461;40.948;73.006;2022-10-12T13:08:13;195.52;;;80.03;;
42866;SDS011;39461;40.948;73.006;2022-10-12T13:16:08;133.98;;;48.30;;
42866;SDS011;39461;40.948;73.006;2022-10-12T13:18:54;114.07;;;46.88;;
42866;SDS011;39461;40.948;73.006;2022-10-12T13:21:36;117.85;;;48.95;;
42866;SDS011;39461;40.948;73.006;2022-10-12T13:24:14;100.20;;;45.00;;
42866;SDS011;39461;40.948;73.006;2022-10-12T13:26:51;77.47;;;38.72;;
42866;SDS011;39461;40.948;73.006;2022-10-12T13:32:04;95.85;;;40.25;;
42866;SDS011;39461;40.948;73.006;2022-10-12T13:34:41;104.63;;;42.20;;
42866;SDS011;39461;40.948;73.006;2022-10-12T13:37:17;129.02;;;44.35;;
42866;SDS011;39461;40.948;73.006;2022-10-12T13:39:52;117.07;;;44.28;;
42866;SDS011;39461;40.948;73.006;2022-10-12T13:42:30;107.45;;;43.63;;
42866;SDS011;39461;40.948;73.006;2022-10-12T13:45:06;112.00;;;45.22;;
42866;SDS011;39461;40.948;73.006;2022-10-12T13:47:42;116.72;;;45.35;;
42866;SDS011;39461;40.948;73.006;2022-10-12T13:50:19;102.03;;;39.90;;
42866;SDS011;39461;40.948;73.006;2022-10-12T13:52:52;111.85;;;46.13;;
42866;SDS011;39461;40.948;73.006;2022-10-12T13:55:26;97.35;;;39.72;;
42866;SDS011;39461;40.948;73.006;2022-10-12T13:57:59;107.22;;;47.03;;
42866;SDS011;39461;40.948;73.006;2022-10-12T14:00:39;131.23;;;52.20;;
42866;SDS011;39461;40.948;73.006;2022-10-12T14:03:25;139.50;;;60.90;;
42866;SDS011;39461;40.948;73.006;2022-10-12T14:05:59;164.82;;;60.72;;
42866;SDS011;39461;40.948;73.006;2022-10-12T14:08:34;189.35;;;59.25;;
42866;SDS011;39461;40.948;73.006;2022-10-12T14:11:10;156.45;;;55.00;;
42866;SDS011;39461;40.948;73.006;2022-10-12T14:13:38;139.35;;;53.20;;
42866;SDS011;39461;40.948;73.006;2022-10-12T14:16:13;128.98;;;49.55;;
42866;SDS011;39461;40.948;73.006;2022-10-12T14:18:49;129.02;;;49.20;;
42866;SDS011;39461;40.948;73.006;2022-10-12T14:21:28;134.50;;;52.88;;
42866;SDS011;39461;40.948;73.006;2022-10-12T14:24:06;131.88;;;46.88;;
42866;SDS011;39461;40.948;73.006;2022-10-12T14:26:40;110.47;;;44.38;;
42866;SDS011;39461;40.948;73.006;2022-10-12T14:29:36;140.93;;;43.17;;
42866;SDS011;39461;40.948;73.006;2022-10-12T14:34:44;103.55;;;39.80;;
42866;SDS011;39461;40.948;73.006;2022-10-12T14:37:22;98.90;;;38.13;;
42866;SDS011;39461;40.948;73.006;2022-10-12T14:39:58;117.40;;;38.10;;
42866;SDS011;39461;40.948;73.006;2022-10-12T14:43:04;96.10;;;34.58;;
42866;SDS011;39461;40.948;73.006;2022-10-12T14:45:43;83.30;;;31.92;;
42866;SDS011;39461;40.948;73.006;2022-10-12T14:48:19;66.28;;;28.02;;
42866;SDS011;39461;40.948;73.006;2022-10-12T14:50:56;76.47;;;30.48;;
42866;SDS011;39461;40.948;73.006;2022-10-12T14:53:31;69.13;;;32.65;;
42866;SDS011;39461;40.948;73.006;2022-10-12T14:56:07;88.25;;;40.08;;
42866;SDS011;39461;40.948;73.006;2022-10-12T14:58:43;91.72;;;36.90;;
42866;SDS011;39461;40.948;73.006;2022-10-12T15:01:17;82.57;;;36.20;;
42866;SDS011;39461;40.948;73.006;2022-10-12T15:03:52;97.50;;;37.85;;
42866;SDS011;39461;40.948;73.006;2022-10-12T15:06:27;84.22;;;34.03;;
42866;SDS011;39461;40.948;73.006;2022-10-12T15:09:02;59.45;;;28.88;;
42866;SDS011;39461;40.948;73.006;2022-10-12T15:11:37;58.60;;;25.70;;
42866;SDS011;39461;40.948;73.006;2022-10-12T15:14:12;56.78;;;23.70;;
42866;SDS011;39461;40.948;73.006;2022-10-12T15:16:39;58.50;;;22.17;;
42866;SDS011;39461;40.948;73.006;2022-10-12T15:19:17;48.95;;;21.33;;
42866;SDS011;39461;40.948;73.006;2022-10-12T15:21:53;54.92;;;22.90;;
42866;SDS011;39461;40.948;73.006;2022-10-12T15:24:28;53.00;;;23.35;;
42866;SDS011;39461;40.948;73.006;2022-10-12T15:27:12;57.08;;;23.92;;
42866;SDS011;39461;40.948;73.006;2022-10-12T15:29:47;58.35;;;24.23;;
42866;SDS011;39461;40.948;73.006;2022-10-12T15:32:22;60.65;;;22.52;;
42866;SDS011;39461;40.948;73.006;2022-10-12T15:34:58;52.65;;;21.98;;
42866;SDS011;39461;40.948;73.006;2022-10-12T15:37:33;49.47;;;20.33;;
42866;SDS011;39461;40.948;73.006;2022-10-12T15:40:09;53.45;;;22.38;;
42866;SDS011;39461;40.948;73.006;2022-10-12T15:42:45;52.83;;;21.27;;
42866;SDS011;39461;40.948;73.006;2022-10-12T15:45:22;48.53;;;19.48;;
42866;SDS011;39461;40.948;73.006;2022-10-12T15:47:57;46.72;;;20.75;;
42866;SDS011;39461;40.948;73.006;2022-10-12T15:53:31;44.85;;;19.55;;
42866;SDS011;39461;40.948;73.006;2022-10-12T15:56:09;47.42;;;20.45;;
42866;SDS011;39461;40.948;73.006;2022-10-12T15:58:45;42.25;;;19.00;;
42866;SDS011;39461;40.948;73.006;2022-10-12T16:01:20;51.75;;;18.23;;
42866;SDS011;39461;40.948;73.006;2022-10-12T16:03:55;47.28;;;18.77;;
42866;SDS011;39461;40.948;73.006;2022-10-12T16:06:30;45.75;;;18.35;;
42866;SDS011;39461;40.948;73.006;2022-10-12T16:09:03;49.03;;;16.92;;
42866;SDS011;39461;40.948;73.006;2022-10-12T16:11:38;48.50;;;18.05;;
42866;SDS011;39461;40.948;73.006;2022-10-12T16:14:05;38.72;;;16.65;;
42866;SDS011;39461;40.948;73.006;2022-10-12T16:16:40;53.90;;;17.65;;
42866;SDS011;39461;40.948;73.006;2022-10-12T16:19:15;39.78;;;15.82;;
42866;SDS011;39461;40.948;73.006;2022-10-12T16:21:47;35.72;;;16.85;;
42866;SDS011;39461;40.948;73.006;2022-10-12T16:24:22;45.45;;;16.33;;
42866;SDS011;39461;40.948;73.006;2022-10-12T16:26:50;39.28;;;15.38;;
42866;SDS011;39461;40.948;73.006;2022-10-12T16:29:27;37.58;;;15.13;;
42866;SDS011;39461;40.948;73.006;2022-10-12T16:32:05;43.35;;;16.27;;
42866;SDS011;39461;40.948;73.006;2022-10-12T16:34:40;35.10;;;15.10;;
42866;SDS011;39461;40.948;73.006;2022-10-12T16:37:16;38.72;;;15.35;;
42866;SDS011;39461;40.948;73.006;2022-10-12T16:39:52;32.00;;;14.98;;
42866;SDS011;39461;40.948;73.006;2022-10-12T16:42:27;35.97;;;14.73;;
42866;SDS011;39461;40.948;73.006;2022-10-12T16:45:03;47.83;;;15.77;;
42866;SDS011;39461;40.948;73.006;2022-10-12T16:47:38;39.28;;;15.80;;
42866;SDS011;39461;40.948;73.006;2022-10-12T16:50:11;38.08;;;15.88;;
42866;SDS011;39461;40.948;73.006;2022-10-12T16:52:44;41.72;;;16.05;;
42866;SDS011;39461;40.948;73.006;2022-10-12T16:55:18;38.60;;;14.90;;
42866;SDS011;39461;40.948;73.006;2022-10-12T16:57:47;31.70;;;14.50;;
42866;SDS011;39461;40.948;73.006;2022-10-12T17:00:24;42.80;;;14.68;;
42866;SDS011;39461;40.948;73.006;2022-10-12T17:02:59;37.85;;;15.15;;
42866;SDS011;39461;40.948;73.006;2022-10-12T17:05:34;35.17;;;15.55;;
42866;SDS011;39461;40.948;73.006;2022-10-12T17:08:07;35.55;;;15.50;;
42866;SDS011;39461;40.948;73.006;2022-10-12T17:10:44;37.80;;;15.07;;
42866;SDS011;39461;40.948;73.006;2022-10-12T17:13:18;35.75;;;15.68;;
42866;SDS011;39461;40.948;73.006;2022-10-12T17:15:51;42.22;;;15.98;;
42866;SDS011;39461;40.948;73.006;2022-10-12T17:18:28;62.65;;;18.02;;
42866;SDS011;39461;40.948;73.006;2022-10-12T17:21:01;39.90;;;16.17;;